»·PEaware :: N623LS KTOA-0O2

N623LS :: KTOA-0O2

FLIGHT INFORMATION

Flight Status: Arrived
Operator: Privately registered:
United States
More flights under this callsign
Pilot: Anonymous 18292 (18292)
Aircraft: MOONEY M-20 201 202 205 220 ATS MSE
(M20P)
More flights by this aircraft type
Origin: KTOA Zamperini
United States
Destination: 0O2 Baker
United States
More flights between these airports :: More routes between these airports
Route: +LIMBO V8 PDZ V442 APLES V394 CHRLT
File this flight plan on PilotEdge
Remarks:
Altitude:
(Current/Filed)
13,000ft
Speed:
(Current/Filed)
182kts
Departed: 14-Sep-18 10:35 AM
Arrived: 14-Sep-18 11:48 AM
Distance/Time
Traveled:
143nm/1:13
Distance/Time
To Go:
Arrived

Flight Plot

Page will automatically refresh every two minutes.

Flight plan parsing failed; only flown route is shown


Map Options




Map Legend


Flown Route
Filed Route
Departure Airport
Arrival Airport
Navaid (VOR, NDB)
Fix

Horizontal Profiles

Position Reports

Time Latitude Longitude Heading Altitude Ground
Speed
14-Sep-18 09:54 33.803347 -118.344051 39 110ft 0kts
14-Sep-18 09:55 33.803347 -118.344051 39 110ft 0kts
14-Sep-18 09:56 33.803347 -118.344051 39 110ft 0kts
14-Sep-18 10:04 33.801601 -118.341420 218 111ft 0kts
14-Sep-18 10:05 33.801601 -118.341420 218 111ft 0kts
14-Sep-18 10:06 33.801601 -118.341420 218 113ft 0kts
14-Sep-18 10:07 33.801601 -118.341420 218 111ft 0kts
14-Sep-18 10:08 33.801606 -118.341415 220 111ft 0kts
14-Sep-18 10:09 33.801606 -118.341415 220 111ft 0kts
14-Sep-18 10:10 33.801606 -118.341415 220 111ft 0kts
14-Sep-18 10:11 33.801606 -118.341415 220 111ft 0kts
14-Sep-18 10:12 33.801606 -118.341415 220 111ft 0kts
14-Sep-18 10:13 33.801606 -118.341415 220 111ft 0kts
14-Sep-18 10:14 33.801606 -118.341415 220 111ft 0kts
14-Sep-18 10:15 33.801606 -118.341415 220 111ft 0kts
14-Sep-18 10:16 33.801606 -118.341415 220 111ft 0kts
14-Sep-18 10:17 33.801606 -118.341415 220 111ft 0kts
14-Sep-18 10:18 33.801606 -118.341415 220 111ft 0kts
14-Sep-18 10:19 33.801606 -118.341415 220 111ft 0kts
14-Sep-18 10:20 33.801606 -118.341415 220 111ft 0kts
14-Sep-18 10:21 33.801606 -118.341415 220 111ft 0kts
14-Sep-18 10:22 33.801606 -118.341415 220 111ft 0kts
14-Sep-18 10:23 33.801341 -118.341270 127 113ft 7kts
14-Sep-18 10:24 33.800784 -118.339851 34 108ft 0kts
14-Sep-18 10:25 33.799921 -118.337341 124 105ft 17kts
14-Sep-18 10:26 33.798307 -118.334030 38 107ft 10kts
14-Sep-18 10:27 33.798879 -118.333155 337 102ft 0kts
14-Sep-18 10:28 33.798879 -118.333155 337 102ft 0kts
14-Sep-18 10:29 33.799149 -118.333241 33 102ft 0kts
14-Sep-18 10:30 33.799149 -118.333241 33 102ft 0kts
14-Sep-18 10:31 33.799149 -118.333241 33 102ft 0kts
14-Sep-18 10:32 33.799149 -118.333241 33 102ft 0kts
14-Sep-18 10:33 33.799149 -118.333241 33 102ft 0kts
14-Sep-18 10:34 33.799149 -118.333241 33 102ft 0kts
14-Sep-18 10:35 33.799149 -118.333241 33 102ft 0kts
14-Sep-18 10:36 33.799787 -118.333179 308 100ft 13kts
14-Sep-18 10:37 33.812131 -118.352973 305 739ft 91kts
14-Sep-18 10:38 33.825147 -118.380390 292 1682ft 111kts
14-Sep-18 10:39 33.833269 -118.416537 280 2777ft 116kts
14-Sep-18 10:40 33.838623 -118.456697 230 2927ft 137kts
14-Sep-18 10:41 33.800531 -118.454064 172 3619ft 143kts
14-Sep-18 10:42 33.766252 -118.431425 135 3928ft 164kts
14-Sep-18 10:43 33.730774 -118.396148 141 3910ft 170kts
14-Sep-18 10:44 33.694315 -118.360221 140 3998ft 172kts
14-Sep-18 10:45 33.679094 -118.312587 100 4905ft 157kts
14-Sep-18 10:46 33.687870 -118.266514 60 5580ft 161kts
14-Sep-18 10:47 33.708749 -118.225845 60 6290ft 158kts
14-Sep-18 10:48 33.730808 -118.182636 62 7032ft 157kts
14-Sep-18 10:49 33.752360 -118.136854 66 6996ft 174kts
14-Sep-18 10:50 33.770415 -118.088813 64 6968ft 176kts
14-Sep-18 10:51 33.788297 -118.042796 70 6993ft 173kts
14-Sep-18 10:52 33.803245 -117.993818 67 6957ft 176kts
14-Sep-18 10:53 33.816521 -117.942923 71 7581ft 166kts
14-Sep-18 10:54 33.829975 -117.893505 79 8338ft 158kts
14-Sep-18 10:55 33.838087 -117.842018 75 8888ft 163kts
14-Sep-18 10:56 33.851430 -117.789975 64 8944ft 168kts
14-Sep-18 10:57 33.867763 -117.739014 63 9085ft 167kts
14-Sep-18 10:58 33.881822 -117.684231 75 9000ft 174kts
14-Sep-18 10:59 33.891765 -117.627844 73 8949ft 176kts
14-Sep-18 11:00 33.905907 -117.572460 70 8974ft 173kts
14-Sep-18 11:01 33.932042 -117.527124 27 8914ft 172kts
14-Sep-18 11:02 33.974150 -117.501536 29 8935ft 170kts
14-Sep-18 11:03 34.016104 -117.476316 29 8961ft 168kts
14-Sep-18 11:04 34.057527 -117.448658 24 8999ft 170kts
14-Sep-18 11:05 34.090062 -117.430863 24 8958ft 175kts
14-Sep-18 11:06 34.090062 -117.430863 24 8958ft 175kts
14-Sep-18 11:07 34.090062 -117.430863 24 8958ft 175kts
14-Sep-18 11:08 34.090062 -117.430863 24 8958ft 175kts
14-Sep-18 11:09 34.091390 -117.430088 24 8960ft 175kts
14-Sep-18 11:10 34.119610 -117.414716 23 8980ft 176kts
14-Sep-18 11:11 34.142793 -117.401407 26 9018ft 177kts
14-Sep-18 11:12 34.175337 -117.383022 24 9033ft 178kts
14-Sep-18 11:13 34.209129 -117.361959 27 9020ft 180kts
14-Sep-18 11:14 34.246595 -117.336296 27 9052ft 180kts
14-Sep-18 11:15 34.295483 -117.309643 30 9805ft 161kts
14-Sep-18 11:16 34.323593 -117.289848 37 10478ft 146kts
14-Sep-18 11:17 34.359732 -117.266548 26 10950ft 157kts
14-Sep-18 11:18 34.400877 -117.243519 23 11061ft 170kts
14-Sep-18 11:19 34.442887 -117.215996 24 11063ft 177kts
14-Sep-18 11:20 34.487653 -117.189384 22 10972ft 185kts
14-Sep-18 11:21 34.533154 -117.161492 25 10947ft 190kts
14-Sep-18 11:22 34.572012 -117.118809 46 11005ft 192kts
14-Sep-18 11:23 34.609587 -117.073138 48 10994ft 193kts
14-Sep-18 11:24 34.644562 -117.024712 48 10594ft 191kts
14-Sep-18 11:25 34.679951 -116.979990 46 10273ft 184kts
14-Sep-18 11:26 34.716521 -116.934362 47 9732ft 192kts
14-Sep-18 11:27 34.750395 -116.883725 49 9245ft 196kts
14-Sep-18 11:28 34.786771 -116.835096 46 8806ft 195kts
14-Sep-18 11:29 34.824145 -116.788475 44 8392ft 193kts
14-Sep-18 11:30 34.860818 -116.742629 48 8006ft 192kts
14-Sep-18 11:31 34.895259 -116.693464 51 7615ft 191kts
14-Sep-18 11:32 34.927257 -116.642786 52 7253ft 190kts
14-Sep-18 11:33 34.958172 -116.591343 54 6911ft 188kts
14-Sep-18 11:34 34.986226 -116.539538 56 6538ft 182kts
14-Sep-18 11:35 35.013764 -116.488977 56 6088ft 182kts
14-Sep-18 11:36 35.041947 -116.438202 59 5667ft 181kts
14-Sep-18 11:37 35.066028 -116.385442 62 5094ft 179kts
14-Sep-18 11:38 35.085770 -116.339224 64 4603ft 177kts
14-Sep-18 11:39 35.105743 -116.292941 63 4121ft 176kts
14-Sep-18 11:40 35.127913 -116.242220 63 3586ft 175kts
14-Sep-18 11:41 35.156301 -116.194793 43 3140ft 170kts
14-Sep-18 11:42 35.195564 -116.162932 37 3112ft 166kts
14-Sep-18 11:43 35.229992 -116.131526 41 2552ft 144kts
14-Sep-18 11:44 35.259428 -116.102984 32 2408ft 129kts
14-Sep-18 11:45 35.288944 -116.079102 42 2069ft 140kts
14-Sep-18 11:46 35.299327 -116.052646 204 2019ft 120kts
14-Sep-18 11:47 35.272776 -116.055480 263 1927ft 135kts
14-Sep-18 11:48 35.300201 -116.073674 356 1592ft 107kts
14-Sep-18 11:49 35.287672 -116.081832 158 922ft 67kts
14-Sep-18 11:50 35.285226 -116.081044 346 923ft 23kts
14-Sep-18 11:51 35.287530 -116.081165 256 923ft 0kts

Navigation Log

Ident Type
Flight plan parsing failed, navigation log unavailable